Terminal Aerodrome Forecast
Issued by NWS Sterling, VA

Current Version | Previous Version | Graphics & Text | Print | Product List | Glossary On
Versions: 1 2 3 4 5 6 7 8 9 10 11 12 13 14 15 16 17 18 19 20 21 22 23 24 25 26 27 28 29 30 31 32
000
FTUS41 KLWX 030959 AAB
TAFIAD
TAF AMD
KIAD 030959Z 0310/0412 00000KT 2SM BR BKN250
     FM031100 00000KT 4SM BR BKN150
     FM031200 06004KT P6SM OVC100
     FM031600 12004KT P6SM BKN040
     FM032200 13005KT 5SM -SHRA OVC050
     FM040400 14005KT P6SM OVC050=

USA.gov is the U.S. government's official web portal to all federal, state and local government web resources and services.